createdAt,value
2023-04-19T00:00:16.080Z,20.90
2023-04-19T00:01:16.086Z,17.40
2023-04-19T00:02:16.272Z,12.00
2023-04-19T00:03:16.241Z,11.40
2023-04-19T00:04:16.316Z,18.60
2023-04-19T00:05:16.090Z,21.00
2023-04-19T00:06:16.012Z,16.00
2023-04-19T00:07:16.010Z,17.10
2023-04-19T00:08:15.990Z,14.10
2023-04-19T00:09:15.980Z,14.90
2023-04-19T00:10:15.965Z,13.30
2023-04-19T00:11:15.954Z,17.30
2023-04-19T00:12:15.955Z,12.60
2023-04-19T00:13:15.926Z,14.40
2023-04-19T00:14:16.099Z,16.30
2023-04-19T00:15:15.903Z,16.00
2023-04-19T00:16:15.905Z,14.80
2023-04-19T00:17:15.883Z,11.20
2023-04-19T00:18:15.864Z,11.50
2023-04-19T00:19:15.846Z,11.60
2023-04-19T00:20:15.836Z,12.80
2023-04-19T00:21:15.817Z,16.00
2023-04-19T00:22:15.804Z,12.30
2023-04-19T00:23:15.812Z,14.00
2023-04-19T00:24:15.914Z,13.20
2023-04-19T00:25:15.772Z,13.60
2023-04-19T00:26:15.762Z,11.50
2023-04-19T00:27:15.767Z,12.40
2023-04-19T00:28:15.719Z,12.80
2023-04-19T00:29:15.712Z,11.10
2023-04-19T00:30:15.782Z,13.60
2023-04-19T00:31:15.723Z,10.80
2023-04-19T00:32:15.721Z,12.60
2023-04-19T00:33:15.679Z,16.30
2023-04-19T00:34:15.954Z,14.10
2023-04-19T00:35:15.681Z,15.80
2023-04-19T00:36:15.718Z,13.20
2023-04-19T00:37:15.629Z,14.00
2023-04-19T00:38:15.601Z,13.80
2023-04-19T00:39:15.578Z,16.50
2023-04-19T00:40:15.581Z,12.10
2023-04-19T00:41:15.573Z,11.50
2023-04-19T00:42:15.543Z,13.30
2023-04-19T00:43:15.522Z,10.30
2023-04-19T00:44:15.636Z,12.80
2023-04-19T00:45:15.500Z,12.20
2023-04-19T00:46:15.535Z,11.40
2023-04-19T00:47:15.467Z,10.00
2023-04-19T00:48:15.455Z,11.30
2023-04-19T00:49:15.454Z,13.40
2023-04-19T00:50:15.434Z,13.50
2023-04-19T00:51:15.434Z,9.80
2023-04-19T00:52:15.435Z,10.10
2023-04-19T00:53:15.394Z,10.30
2023-04-19T00:54:15.485Z,11.80
2023-04-19T00:55:15.412Z,10.50
2023-04-19T00:56:15.360Z,10.90
2023-04-19T00:57:15.360Z,12.70
2023-04-19T00:58:15.318Z,10.00
2023-04-19T00:59:15.310Z,10.00
2023-04-19T01:00:15.289Z,10.60
2023-04-19T01:01:15.357Z,11.20
2023-04-19T01:02:15.443Z,11.60
2023-04-19T01:03:15.376Z,12.50
2023-04-19T01:04:15.650Z,8.80
2023-04-19T01:05:15.284Z,10.70
2023-04-19T01:06:15.246Z,10.10
2023-04-19T01:07:15.220Z,11.30
2023-04-19T01:08:15.182Z,9.70
2023-04-19T01:09:15.180Z,9.50
2023-04-19T01:10:15.194Z,10.90
2023-04-19T01:11:15.165Z,9.90
2023-04-19T01:12:15.147Z,10.20
2023-04-19T01:13:15.122Z,9.10
2023-04-19T01:14:15.362Z,9.70
2023-04-19T01:15:15.111Z,9.80
2023-04-19T01:16:15.156Z,10.90
2023-04-19T01:17:15.067Z,9.10
2023-04-19T01:18:15.068Z,10.30
2023-04-19T01:19:15.072Z,10.20
2023-04-19T01:20:15.031Z,9.50
2023-04-19T01:21:15.060Z,11.50
2023-04-19T01:22:15.049Z,10.50
2023-04-19T01:23:15.013Z,8.90
2023-04-19T01:24:15.190Z,10.10
2023-04-19T01:25:14.965Z,12.00
2023-04-19T01:26:15.034Z,9.90
2023-04-19T01:27:14.935Z,10.80
2023-04-19T01:28:14.939Z,10.80
2023-04-19T01:29:14.913Z,10.20
2023-04-19T01:30:14.994Z,11.20
2023-04-19T01:31:15.048Z,10.30
2023-04-19T01:32:14.868Z,10.60
2023-04-19T01:33:14.860Z,11.70
2023-04-19T01:34:15.071Z,11.20
2023-04-19T01:35:14.845Z,12.20
2023-04-19T01:36:14.841Z,9.90
2023-04-19T01:37:14.848Z,11.90
2023-04-19T01:38:14.809Z,11.90
2023-04-19T01:39:14.820Z,11.60
2023-04-19T01:40:14.771Z,11.80
2023-04-19T01:41:14.776Z,12.30
2023-04-19T01:42:14.749Z,10.90
2023-04-19T01:43:14.734Z,10.70
2023-04-19T01:44:14.872Z,9.40
2023-04-19T01:45:14.691Z,11.20
2023-04-19T01:46:14.781Z,10.90
2023-04-19T01:47:14.680Z,12.90
2023-04-19T01:48:14.662Z,11.80
2023-04-19T01:49:14.653Z,11.20
2023-04-19T01:50:14.639Z,11.30
2023-04-19T01:51:14.630Z,12.10
2023-04-19T01:52:14.651Z,12.20
2023-04-19T01:53:14.597Z,12.90
2023-04-19T01:54:14.902Z,14.50
2023-04-19T01:55:14.577Z,10.80
2023-04-19T01:56:14.589Z,15.10
2023-04-19T01:57:14.535Z,11.50
2023-04-19T01:58:14.534Z,13.90
2023-04-19T01:59:14.525Z,14.00
2023-04-19T02:00:14.497Z,12.10
2023-04-19T02:01:14.524Z,12.20
2023-04-19T02:02:14.615Z,14.70
2023-04-19T02:03:14.623Z,14.60
2023-04-19T02:04:14.717Z,15.20
2023-04-19T02:05:14.438Z,16.10
2023-04-19T02:06:14.456Z,12.60
2023-04-19T02:07:14.416Z,13.90
2023-04-19T02:08:14.445Z,14.20
2023-04-19T02:09:14.411Z,14.10
2023-04-19T02:10:14.405Z,13.20
2023-04-19T02:11:14.404Z,12.50
2023-04-19T02:12:14.346Z,12.80
2023-04-19T02:13:14.322Z,13.30
2023-04-19T02:14:14.518Z,14.30
2023-04-19T02:15:14.336Z,13.50
2023-04-19T02:16:14.333Z,13.90
2023-04-19T02:17:14.284Z,14.20
2023-04-19T02:18:14.281Z,13.10
2023-04-19T02:19:14.271Z,13.40
2023-04-19T02:20:14.279Z,13.50
2023-04-19T02:21:14.232Z,15.30
2023-04-19T02:22:14.232Z,13.20
2023-04-19T02:23:14.197Z,13.60
2023-04-19T02:24:14.487Z,13.20
2023-04-19T02:25:14.186Z,14.30
2023-04-19T02:26:14.168Z,15.40
2023-04-19T02:27:14.142Z,14.00
2023-04-19T02:28:14.150Z,14.10
2023-04-19T02:29:14.133Z,13.70
2023-04-19T02:30:14.142Z,14.80
2023-04-19T02:31:14.110Z,13.50
2023-04-19T02:32:14.109Z,14.90
2023-04-19T02:33:14.084Z,14.20
2023-04-19T02:34:14.461Z,15.90
2023-04-19T02:35:14.095Z,16.80
2023-04-19T02:36:14.063Z,14.70
2023-04-19T02:37:14.028Z,16.00
2023-04-19T02:38:14.022Z,13.90
2023-04-19T02:39:13.986Z,15.80
2023-04-19T02:40:14.025Z,16.20
2023-04-19T02:41:14.005Z,17.30
2023-04-19T02:42:13.992Z,15.30
2023-04-19T02:43:13.936Z,14.10
2023-04-19T02:44:14.037Z,15.10
2023-04-19T02:45:13.912Z,18.50
2023-04-19T02:46:13.955Z,16.20
2023-04-19T02:47:13.937Z,15.00
2023-04-19T02:48:13.937Z,16.50
2023-04-19T02:49:13.866Z,15.40
2023-04-19T02:50:13.855Z,17.40
2023-04-19T02:51:13.832Z,17.70
2023-04-19T02:52:13.824Z,15.80
2023-04-19T02:53:13.817Z,14.90
2023-04-19T02:54:14.039Z,17.60
2023-04-19T02:55:13.793Z,16.00
2023-04-19T02:56:13.778Z,16.00
2023-04-19T02:57:13.758Z,17.50
2023-04-19T02:58:13.776Z,16.30
2023-04-19T02:59:13.745Z,16.60
2023-04-19T03:00:13.738Z,16.80
2023-04-19T03:01:13.752Z,16.70
2023-04-19T03:02:13.721Z,14.00
2023-04-19T03:03:13.750Z,15.50
2023-04-19T03:04:13.867Z,14.40
2023-04-19T03:05:13.659Z,16.10
2023-04-19T03:06:13.639Z,15.40
2023-04-19T03:07:13.622Z,18.10
2023-04-19T03:08:13.611Z,16.50
2023-04-19T03:09:13.652Z,17.20
2023-04-19T03:10:13.597Z,15.90
2023-04-19T03:11:13.606Z,17.10
2023-04-19T03:12:13.586Z,16.30
2023-04-19T03:13:13.642Z,16.80
2023-04-19T03:14:13.776Z,18.30
2023-04-19T03:15:13.528Z,18.00
2023-04-19T03:16:13.546Z,19.60
2023-04-19T03:17:13.507Z,17.50
2023-04-19T03:18:13.475Z,17.10
2023-04-19T03:19:13.569Z,18.80
2023-04-19T03:20:13.542Z,17.10
2023-04-19T03:21:13.481Z,17.10
2023-04-19T03:22:13.443Z,17.60
2023-04-19T03:23:13.409Z,18.70
2023-04-19T03:24:13.588Z,21.30
2023-04-19T03:25:13.444Z,19.20
2023-04-19T03:26:13.372Z,19.50
2023-04-19T03:27:13.363Z,21.00
2023-04-19T03:28:13.356Z,20.10
2023-04-19T03:29:13.367Z,19.00
2023-04-19T03:30:13.346Z,21.40
2023-04-19T03:31:13.336Z,17.20
2023-04-19T03:32:13.309Z,20.00
2023-04-19T03:33:13.275Z,19.70
2023-04-19T03:34:13.384Z,19.40
2023-04-19T03:35:13.260Z,18.40
2023-04-19T03:36:13.253Z,19.70
2023-04-19T03:37:13.226Z,20.30
2023-04-19T03:38:13.238Z,19.30
2023-04-19T03:39:13.221Z,21.10
2023-04-19T03:40:13.191Z,20.10
2023-04-19T03:41:13.171Z,20.10
2023-04-19T03:42:13.173Z,18.70
2023-04-19T03:43:13.154Z,21.90
2023-04-19T03:44:13.320Z,23.40
2023-04-19T03:45:13.132Z,20.60
2023-04-19T03:46:13.198Z,18.10
2023-04-19T03:47:13.089Z,19.20
2023-04-19T03:48:13.098Z,19.20
2023-04-19T03:49:13.074Z,19.50
2023-04-19T03:50:13.052Z,20.10
2023-04-19T03:51:13.037Z,20.70
2023-04-19T03:52:13.028Z,19.30
2023-04-19T03:53:13.042Z,20.20
2023-04-19T03:54:13.144Z,19.40
2023-04-19T03:55:13.003Z,24.10
2023-04-19T03:56:13.010Z,21.60
2023-04-19T03:57:12.970Z,18.10
2023-04-19T03:58:12.954Z,20.40
2023-04-19T03:59:12.940Z,19.80
2023-04-19T04:00:12.939Z,19.60
2023-04-19T04:01:12.922Z,18.70
2023-04-19T04:02:13.008Z,19.40
2023-04-19T04:03:13.175Z,19.10
2023-04-19T04:04:13.154Z,18.60
2023-04-19T04:05:13.018Z,19.50
2023-04-19T04:06:12.856Z,15.50
2023-04-19T04:07:12.921Z,17.80
2023-04-19T04:08:12.840Z,15.60
2023-04-19T04:09:12.861Z,16.30
2023-04-19T04:10:12.802Z,19.00
2023-04-19T04:11:12.786Z,17.60
2023-04-19T04:12:12.766Z,19.80
2023-04-19T04:13:12.772Z,16.10
2023-04-19T04:14:12.787Z,17.30
2023-04-19T04:15:12.721Z,17.20
2023-04-19T04:16:12.768Z,17.50
2023-04-19T04:17:12.705Z,17.00
2023-04-19T04:18:12.686Z,19.60
2023-04-19T04:19:12.689Z,16.30
2023-04-19T04:20:12.662Z,14.50
2023-04-19T04:21:12.656Z,15.10
2023-04-19T04:22:12.663Z,14.90
2023-04-19T04:23:12.645Z,16.70
2023-04-19T04:24:12.664Z,15.30
2023-04-19T04:25:12.607Z,15.30
2023-04-19T04:26:12.587Z,13.10
2023-04-19T04:27:12.572Z,15.00
2023-04-19T04:28:12.577Z,12.30
2023-04-19T04:29:12.575Z,16.40
2023-04-19T04:30:12.550Z,13.10
2023-04-19T04:31:12.545Z,12.30
2023-04-19T04:32:12.619Z,15.70
2023-04-19T04:33:12.518Z,12.80
2023-04-19T04:34:12.518Z,14.70
2023-04-19T04:35:12.503Z,13.30
2023-04-19T04:36:12.478Z,12.50
2023-04-19T04:37:12.486Z,12.30
2023-04-19T04:38:23.549Z,14.70
2023-04-19T04:39:13.453Z,12.70
2023-04-19T04:40:12.442Z,12.40
2023-04-19T04:41:12.420Z,12.10
2023-04-19T04:42:12.392Z,12.30
2023-04-19T04:43:12.385Z,13.70
2023-04-19T04:44:13.097Z,12.80
2023-04-19T04:45:12.368Z,12.00
2023-04-19T04:46:12.395Z,12.10
2023-04-19T04:47:12.367Z,13.50
2023-04-19T04:48:12.314Z,11.10
2023-04-19T04:49:12.317Z,11.90
2023-04-19T04:50:12.331Z,10.30
2023-04-19T04:51:12.332Z,12.60
2023-04-19T04:52:12.285Z,12.60
2023-04-19T04:53:13.137Z,11.00
2023-04-19T04:54:12.323Z,12.10
2023-04-19T04:55:12.251Z,13.00
2023-04-19T04:56:12.248Z,11.40
2023-04-19T04:57:12.228Z,10.80
2023-04-19T04:58:12.248Z,9.90
2023-04-19T04:59:12.195Z,11.40
2023-04-19T05:00:12.190Z,13.20
2023-04-19T05:01:12.208Z,10.70
2023-04-19T05:02:12.189Z,9.70
2023-04-19T05:03:12.360Z,8.80
2023-04-19T05:04:12.157Z,7.90
2023-04-19T05:05:12.092Z,9.30
2023-04-19T05:06:12.106Z,10.50
2023-04-19T05:07:12.078Z,9.30
2023-04-19T05:08:12.081Z,9.30
2023-04-19T05:09:12.057Z,8.10
2023-04-19T05:10:12.050Z,9.00
2023-04-19T05:11:12.032Z,7.70
2023-04-19T05:12:12.002Z,9.10
2023-04-19T05:13:12.014Z,9.30
2023-04-19T05:14:12.013Z,10.90
2023-04-19T05:15:12.033Z,7.10
2023-04-19T05:16:12.028Z,9.90
2023-04-19T05:17:11.979Z,10.50
2023-04-19T05:18:11.971Z,8.70
2023-04-19T05:19:11.912Z,9.90
2023-04-19T05:20:11.931Z,8.20
2023-04-19T05:21:11.894Z,9.30
2023-04-19T05:22:11.881Z,9.60
2023-04-19T05:23:11.899Z,9.20
2023-04-19T05:24:11.883Z,9.60
2023-04-19T05:25:11.874Z,11.20
2023-04-19T05:26:11.849Z,8.00
2023-04-19T05:27:11.810Z,9.30
2023-04-19T05:28:11.819Z,6.70
2023-04-19T05:29:11.818Z,7.60
2023-04-19T05:30:11.809Z,8.20
2023-04-19T05:31:11.802Z,8.70
2023-04-19T05:32:11.752Z,5.70
2023-04-19T05:33:11.767Z,6.60
2023-04-19T05:34:11.737Z,7.90
2023-04-19T05:35:11.713Z,6.50
2023-04-19T05:36:11.734Z,6.90
2023-04-19T05:37:11.715Z,7.40
2023-04-19T05:38:11.696Z,9.10
2023-04-19T05:39:11.667Z,7.60
2023-04-19T05:40:11.660Z,7.40
2023-04-19T05:41:11.654Z,6.80
2023-04-19T05:42:11.683Z,6.90
2023-04-19T05:43:11.698Z,7.60
2023-04-19T05:44:11.607Z,6.70
2023-04-19T05:45:11.595Z,8.00
2023-04-19T05:46:11.623Z,5.90
2023-04-19T05:47:11.581Z,8.80
2023-04-19T05:48:11.594Z,6.10
2023-04-19T05:49:11.578Z,6.10
2023-04-19T05:50:11.530Z,6.10
2023-04-19T05:51:11.518Z,5.50
2023-04-19T05:52:11.539Z,6.30
2023-04-19T05:53:11.509Z,7.80
2023-04-19T05:54:11.488Z,5.40
2023-04-19T05:55:11.496Z,5.80
2023-04-19T05:56:11.458Z,8.20
2023-04-19T05:57:11.454Z,5.90
2023-04-19T05:58:11.470Z,6.60
2023-04-19T05:59:11.432Z,7.60
2023-04-19T06:00:11.427Z,5.70
2023-04-19T06:01:11.434Z,5.10
2023-04-19T06:02:11.407Z,5.20
2023-04-19T06:03:11.457Z,5.90
2023-04-19T06:04:11.627Z,5.70
2023-04-19T06:05:11.669Z,6.50
2023-04-19T06:06:11.362Z,6.10
2023-04-19T06:07:22.231Z,7.70
2023-04-19T06:08:12.301Z,6.80
2023-04-19T06:09:11.280Z,5.40
2023-04-19T06:10:11.338Z,5.30
2023-04-19T06:11:22.013Z,5.00
2023-04-19T06:12:12.297Z,4.50
2023-04-19T06:13:11.243Z,5.20
2023-04-19T06:14:11.211Z,5.30
2023-04-19T06:15:11.230Z,5.60
2023-04-19T06:16:11.191Z,5.10
2023-04-19T06:17:11.169Z,4.20
2023-04-19T06:18:19.426Z,7.20
2023-04-19T06:19:12.197Z,5.00
2023-04-19T06:20:11.143Z,5.30
2023-04-19T06:21:11.138Z,4.50
2023-04-19T06:22:11.098Z,4.90
2023-04-19T06:23:11.110Z,5.60
2023-04-19T06:24:11.094Z,6.30
2023-04-19T06:25:11.069Z,5.30
2023-04-19T06:26:11.043Z,6.60
2023-04-19T06:27:11.049Z,5.30
2023-04-19T06:28:11.045Z,5.30
2023-04-19T06:29:11.026Z,4.20
2023-04-19T06:30:11.004Z,4.70
2023-04-19T06:31:11.004Z,5.60
2023-04-19T06:32:10.981Z,5.20
2023-04-19T06:33:10.978Z,6.00
2023-04-19T06:34:10.956Z,5.40
2023-04-19T06:35:10.934Z,7.70
2023-04-19T06:36:10.934Z,5.00
2023-04-19T06:37:10.913Z,7.90
2023-04-19T06:38:10.918Z,5.50
2023-04-19T06:39:10.923Z,4.80
2023-04-19T06:40:10.868Z,5.20
2023-04-19T06:41:10.855Z,5.80
2023-04-19T06:42:10.852Z,5.50
2023-04-19T06:43:10.868Z,5.30
2023-04-19T06:44:10.824Z,4.90
2023-04-19T06:45:10.822Z,6.40
2023-04-19T06:46:10.871Z,5.60
2023-04-19T06:47:10.774Z,4.10
2023-04-19T06:48:10.811Z,5.70
2023-04-19T06:49:10.753Z,4.90
2023-04-19T06:50:10.827Z,4.20
2023-04-19T06:51:10.775Z,6.00
2023-04-19T06:52:10.735Z,4.10
2023-04-19T06:53:10.727Z,5.00
2023-04-19T06:54:10.685Z,4.80
2023-04-19T06:55:10.668Z,6.60
2023-04-19T06:56:10.663Z,4.50
2023-04-19T06:57:10.667Z,5.50
2023-04-19T06:58:10.673Z,6.00
2023-04-19T06:59:10.629Z,5.30
2023-04-19T07:00:10.648Z,5.70
2023-04-19T07:01:10.612Z,7.00
2023-04-19T07:02:10.665Z,6.10
2023-04-19T07:03:10.715Z,5.30
2023-04-19T07:04:10.634Z,4.30
2023-04-19T07:05:10.547Z,5.80
2023-04-19T07:06:10.542Z,5.60
2023-04-19T07:07:10.520Z,4.10
2023-04-19T07:08:10.551Z,5.00
2023-04-19T07:09:10.599Z,5.30
2023-04-19T07:10:10.479Z,5.20
2023-04-19T07:11:10.477Z,4.60
2023-04-19T07:12:10.461Z,5.50
2023-04-19T07:13:10.430Z,4.80
2023-04-19T07:14:10.454Z,5.40
2023-04-19T07:15:10.433Z,5.60
2023-04-19T07:16:10.502Z,3.60
2023-04-19T07:17:10.401Z,4.80
2023-04-19T07:18:10.366Z,6.10
2023-04-19T07:19:10.386Z,4.00
2023-04-19T07:20:10.368Z,4.50
2023-04-19T07:21:10.426Z,4.70
2023-04-19T07:22:10.333Z,4.00
2023-04-19T07:23:10.333Z,6.00
2023-04-19T07:24:10.279Z,4.50
2023-04-19T07:25:10.306Z,4.20
2023-04-19T07:26:10.259Z,3.00
2023-04-19T07:27:10.277Z,4.00
2023-04-19T07:28:10.255Z,4.90
2023-04-19T07:29:10.230Z,3.50
2023-04-19T07:30:10.256Z,4.90
2023-04-19T07:31:10.194Z,5.20
2023-04-19T07:32:10.257Z,4.80
2023-04-19T07:33:10.249Z,3.20
2023-04-19T07:34:10.147Z,3.90
2023-04-19T07:35:10.166Z,4.20
2023-04-19T07:36:10.129Z,4.20
2023-04-19T07:37:10.181Z,5.00
2023-04-19T07:38:10.098Z,4.10
2023-04-19T07:39:10.087Z,5.20
2023-04-19T07:40:10.105Z,4.60
2023-04-19T07:41:10.264Z,5.60
2023-04-19T07:42:10.061Z,5.60
2023-04-19T07:43:10.067Z,3.40
2023-04-19T07:44:10.022Z,5.40
2023-04-19T07:45:10.065Z,4.40
2023-04-19T07:46:10.090Z,3.60
2023-04-19T07:47:10.009Z,4.20
2023-04-19T07:48:10.011Z,6.00
2023-04-19T07:49:09.957Z,3.60
2023-04-19T07:50:09.953Z,4.40
2023-04-19T07:51:09.929Z,4.30
2023-04-19T07:52:09.928Z,5.50
2023-04-19T07:53:09.939Z,5.90
2023-04-19T07:54:09.893Z,4.60
2023-04-19T07:55:09.886Z,4.20
2023-04-19T07:56:12.117Z,5.90
2023-04-19T07:57:09.866Z,3.30
2023-04-19T07:58:09.850Z,5.60
2023-04-19T07:59:09.856Z,4.10
2023-04-19T08:00:09.817Z,5.00
2023-04-19T08:01:09.847Z,4.10
2023-04-19T08:02:09.880Z,5.80
2023-04-19T08:03:09.967Z,6.40
2023-04-19T08:04:09.911Z,4.50
2023-04-19T08:05:09.871Z,5.10
2023-04-19T08:06:09.732Z,4.90
2023-04-19T08:07:09.732Z,4.40
2023-04-19T08:08:09.706Z,4.80
2023-04-19T08:09:09.717Z,4.30
2023-04-19T08:10:09.726Z,6.20
2023-04-19T08:11:09.674Z,5.10
2023-04-19T08:12:12.645Z,3.50
2023-04-19T08:13:10.693Z,4.60
2023-04-19T08:14:18.679Z,5.30
2023-04-19T08:15:45.065Z,4.50
2023-04-19T08:18:09.599Z,4.80
2023-04-19T08:19:09.595Z,3.50
2023-04-19T08:20:09.665Z,5.70
2023-04-19T08:21:09.543Z,4.50
2023-04-19T08:22:09.544Z,4.60
2023-04-19T08:23:20.456Z,4.90
2023-04-19T08:24:10.525Z,5.00
2023-04-19T08:25:09.547Z,5.40
2023-04-19T08:26:09.455Z,4.30
2023-04-19T08:27:09.559Z,4.90
2023-04-19T08:28:09.460Z,5.00
2023-04-19T08:29:09.430Z,3.80
2023-04-19T08:30:09.449Z,3.60
2023-04-19T08:31:09.440Z,4.60
2023-04-19T08:32:09.556Z,4.30
2023-04-19T08:33:09.475Z,7.20
2023-04-19T08:34:09.367Z,7.30
2023-04-19T08:35:09.378Z,6.70
2023-04-19T08:36:09.363Z,5.40
2023-04-19T08:37:09.351Z,3.30
2023-04-19T08:38:09.392Z,4.20
2023-04-19T08:39:15.054Z,4.60
2023-04-19T08:40:10.295Z,5.60
2023-04-19T08:41:09.334Z,5.50
2023-04-19T08:42:18.453Z,4.00
2023-04-19T08:43:10.285Z,4.80
2023-04-19T08:44:09.232Z,4.30
2023-04-19T08:45:27.028Z,5.20
2023-04-19T08:46:10.291Z,3.30
2023-04-19T08:47:10.203Z,4.50
2023-04-19T08:48:09.229Z,3.40
2023-04-19T08:49:09.194Z,5.10
2023-04-19T08:50:23.952Z,4.30
2023-04-19T08:51:10.172Z,5.50
2023-04-19T08:52:09.154Z,3.90
2023-04-19T08:53:23.839Z,5.70
2023-04-19T08:54:10.138Z,4.30
2023-04-19T08:55:09.097Z,4.50
2023-04-19T08:56:18.080Z,5.10
2023-04-19T08:57:10.102Z,3.60
2023-04-19T08:58:18.869Z,4.20
2023-04-19T08:59:18.005Z,5.20
2023-04-19T09:00:10.006Z,4.80
2023-04-19T09:01:12.930Z,4.10
2023-04-19T09:02:10.117Z,4.30
2023-04-19T09:03:09.292Z,3.00
2023-04-19T09:05:09.072Z,4.30
2023-04-19T09:06:09.055Z,4.10
2023-04-19T09:07:08.973Z,4.20
2023-04-19T09:08:08.940Z,4.70
2023-04-19T09:09:12.211Z,5.30
2023-04-19T09:10:10.203Z,5.20
2023-04-19T09:11:08.901Z,4.20
2023-04-19T09:12:08.853Z,5.10
2023-04-19T09:13:08.852Z,4.30
2023-04-19T09:14:08.859Z,4.50
2023-04-19T09:15:08.841Z,5.80
2023-04-19T09:16:08.873Z,4.10
2023-04-19T09:17:08.790Z,6.10
2023-04-19T09:18:08.865Z,5.30
2023-04-19T09:19:23.202Z,4.90
2023-04-19T09:20:09.803Z,5.80
2023-04-19T09:21:08.788Z,6.60
2023-04-19T09:22:08.727Z,4.70
2023-04-19T09:23:08.783Z,5.10
2023-04-19T09:24:08.805Z,3.70
2023-04-19T09:26:23.029Z,4.80
2023-04-19T09:27:09.681Z,5.80
2023-04-19T09:28:08.672Z,4.10
2023-04-19T09:29:08.631Z,4.20
2023-04-19T09:30:17.626Z,4.20
2023-04-19T09:31:29.872Z,5.90
2023-04-19T09:32:09.674Z,5.30
2023-04-19T09:33:08.640Z,4.40
2023-04-19T09:34:08.568Z,4.80
2023-04-19T09:35:08.584Z,5.50
2023-04-19T09:36:08.559Z,4.60
2023-04-19T09:37:14.709Z,4.80
2023-04-19T09:38:09.525Z,4.60
2023-04-19T09:39:08.529Z,3.80
2023-04-19T09:40:08.517Z,5.30
2023-04-19T09:41:08.495Z,5.30
2023-04-19T09:42:08.514Z,4.50
2023-04-19T09:43:29.011Z,4.50
2023-04-19T09:44:52.467Z,8.10
2023-04-19T09:46:08.490Z,5.30
2023-04-19T09:47:08.482Z,3.90
2023-04-19T09:48:08.494Z,5.10
2023-04-19T09:49:17.130Z,4.00
2023-04-19T09:50:21.993Z,5.10
2023-04-19T09:51:12.729Z,4.70
2023-04-19T09:52:09.510Z,5.70
2023-04-19T09:53:08.366Z,4.60
2023-04-19T09:54:08.324Z,3.90
2023-04-19T09:55:17.685Z,8.10
2023-04-19T09:56:09.329Z,4.30
2023-04-19T09:57:08.262Z,4.70
2023-04-19T09:58:08.258Z,6.00
2023-04-19T09:59:19.349Z,5.60
2023-04-19T10:00:09.365Z,3.90
2023-04-19T10:01:15.045Z,4.90
2023-04-19T10:02:09.339Z,5.60
2023-04-19T10:03:08.231Z,5.00
2023-04-19T10:04:23.776Z,6.50
2023-04-19T10:06:10.908Z,4.00
2023-04-19T10:07:29.191Z,4.90
2023-04-19T10:08:09.257Z,4.80
2023-04-19T10:09:08.110Z,3.80
2023-04-19T10:10:18.644Z,5.00
2023-04-19T10:11:09.092Z,5.20
2023-04-19T10:12:24.021Z,5.80
2023-04-19T10:13:18.975Z,3.90
2023-04-19T10:14:09.092Z,5.00
2023-04-19T10:15:08.042Z,5.10
2023-04-19T10:16:18.788Z,4.80
2023-04-19T10:17:09.144Z,4.40
2023-04-19T10:18:08.100Z,4.80
2023-04-19T10:19:09.921Z,4.60
2023-04-19T10:20:07.996Z,4.30
2023-04-19T10:21:08.004Z,4.40
2023-04-19T10:22:07.937Z,4.40
2023-04-19T10:23:07.918Z,5.80
2023-04-19T10:24:07.921Z,4.50
2023-04-19T10:25:07.895Z,4.70
2023-04-19T10:26:07.927Z,4.70
2023-04-19T10:27:07.877Z,4.40
2023-04-19T10:28:07.917Z,4.60
2023-04-19T10:29:07.874Z,6.40
2023-04-19T10:30:08.017Z,3.90
2023-04-19T10:31:07.832Z,6.90
2023-04-19T10:32:07.875Z,4.10
2023-04-19T10:33:07.876Z,4.50
2023-04-19T10:34:07.880Z,6.00
2023-04-19T10:35:07.769Z,5.40
2023-04-19T10:36:07.778Z,4.70
2023-04-19T10:37:07.738Z,6.20
2023-04-19T10:38:07.732Z,6.80
2023-04-19T10:39:07.703Z,5.40
2023-04-19T10:40:07.708Z,5.40
2023-04-19T10:41:07.714Z,5.00
2023-04-19T10:42:07.706Z,5.20
2023-04-19T10:43:07.667Z,5.10
2023-04-19T10:44:07.662Z,5.30
2023-04-19T10:45:07.666Z,4.30
2023-04-19T10:46:07.755Z,5.50
2023-04-19T10:47:07.650Z,5.60
2023-04-19T10:48:07.617Z,5.60
2023-04-19T10:49:07.585Z,5.00
2023-04-19T10:50:07.592Z,5.60
2023-04-19T10:51:07.572Z,4.90
2023-04-19T10:52:07.564Z,4.80
2023-04-19T10:53:07.544Z,5.00
2023-04-19T10:54:07.529Z,5.60
2023-04-19T10:55:07.505Z,4.60
2023-04-19T10:56:07.567Z,4.70
2023-04-19T10:57:07.473Z,6.30
2023-04-19T10:58:07.517Z,5.10
2023-04-19T10:59:07.448Z,4.70
2023-04-19T11:00:07.435Z,6.00
2023-04-19T11:01:07.498Z,5.60
2023-04-19T11:02:07.506Z,4.60
2023-04-19T11:03:07.517Z,6.50
2023-04-19T11:04:07.628Z,5.60
2023-04-19T11:05:07.408Z,6.20
2023-04-19T11:06:07.377Z,8.20
2023-04-19T11:07:07.381Z,6.40
2023-04-19T11:08:07.353Z,5.30
2023-04-19T11:09:07.349Z,6.40
2023-04-19T11:10:07.338Z,8.70
2023-04-19T11:11:07.292Z,5.30
2023-04-19T11:12:07.295Z,5.50
2023-04-19T11:13:07.277Z,12.00
2023-04-19T11:14:07.249Z,8.50
2023-04-19T11:15:07.251Z,7.10
2023-04-19T11:16:07.247Z,8.80
2023-04-19T11:17:07.233Z,7.20
2023-04-19T11:18:12.995Z,6.10
2023-04-19T11:19:08.181Z,7.70
2023-04-19T11:20:07.263Z,6.10
2023-04-19T11:21:07.157Z,4.50
2023-04-19T11:22:07.152Z,5.80
2023-04-19T11:23:07.190Z,5.20
2023-04-19T11:24:07.120Z,5.40
2023-04-19T11:25:07.151Z,6.90
2023-04-19T11:26:07.084Z,5.40
2023-04-19T11:27:07.072Z,5.80
2023-04-19T11:28:07.090Z,6.10
2023-04-19T11:29:07.043Z,6.50
2023-04-19T11:30:07.067Z,7.30
2023-04-19T11:31:07.040Z,5.70
2023-04-19T11:32:07.025Z,7.10
2023-04-19T11:33:07.095Z,6.70
2023-04-19T11:34:07.022Z,7.70
2023-04-19T11:35:07.003Z,9.20
2023-04-19T11:36:06.966Z,9.70
2023-04-19T11:37:06.946Z,7.60
2023-04-19T11:38:06.937Z,6.90
2023-04-19T11:39:06.926Z,7.90
2023-04-19T11:40:07.000Z,6.80
2023-04-19T11:41:06.903Z,5.70
2023-04-19T11:42:06.924Z,5.90
2023-04-19T11:43:06.888Z,6.00
2023-04-19T11:44:06.897Z,6.70
2023-04-19T11:45:13.174Z,5.80
2023-04-19T11:46:07.909Z,6.60
2023-04-19T11:47:06.846Z,9.80
2023-04-19T11:48:06.855Z,6.90
2023-04-19T11:49:06.790Z,6.50
2023-04-19T11:50:06.789Z,5.80
2023-04-19T11:51:06.777Z,7.20
2023-04-19T11:52:06.820Z,5.40
2023-04-19T11:53:06.736Z,7.10
2023-04-19T11:54:06.723Z,6.40
2023-04-19T11:55:06.744Z,6.80
2023-04-19T11:56:06.684Z,5.70
2023-04-19T11:57:06.719Z,6.80
2023-04-19T11:58:06.690Z,6.60
2023-04-19T11:59:06.697Z,5.30
2023-04-19T12:00:06.665Z,5.70
2023-04-19T12:01:06.849Z,6.50
2023-04-19T12:02:06.735Z,5.80
2023-04-19T12:03:06.947Z,11.40
2023-04-19T12:04:06.768Z,9.40
2023-04-19T12:05:06.794Z,16.40
2023-04-19T12:06:06.618Z,12.50
2023-04-19T12:07:06.596Z,12.60
2023-04-19T12:08:06.532Z,9.50
2023-04-19T12:09:06.539Z,7.90
2023-04-19T12:10:06.636Z,6.80
2023-04-19T12:11:06.505Z,5.30
2023-04-19T12:12:06.491Z,6.40
2023-04-19T12:13:06.483Z,6.50
2023-04-19T12:14:06.480Z,10.20
2023-04-19T12:15:06.486Z,8.00
2023-04-19T12:16:06.446Z,10.80
2023-04-19T12:17:06.571Z,8.80
2023-04-19T12:18:06.438Z,9.70
2023-04-19T12:19:06.390Z,24.50
2023-04-19T12:20:06.404Z,27.70
2023-04-19T12:21:06.369Z,14.80
2023-04-19T12:22:06.374Z,10.20
2023-04-19T12:23:06.352Z,8.50
2023-04-19T12:24:06.324Z,6.30
2023-04-19T12:25:06.331Z,6.20
2023-04-19T12:26:06.345Z,8.90
2023-04-19T12:27:06.333Z,6.60
2023-04-19T12:28:06.280Z,7.80
2023-04-19T12:29:06.273Z,7.60
2023-04-19T12:30:06.276Z,7.20
2023-04-19T12:31:06.235Z,7.10
2023-04-19T12:32:06.322Z,6.30
2023-04-19T12:33:06.310Z,6.80
2023-04-19T12:34:06.214Z,6.80
2023-04-19T12:35:06.210Z,6.00
2023-04-19T12:36:06.152Z,6.40
2023-04-19T12:37:06.162Z,7.80
2023-04-19T12:38:06.177Z,6.50
2023-04-19T12:39:06.139Z,6.60
2023-04-19T12:40:06.140Z,5.60
2023-04-19T12:41:06.097Z,7.40
2023-04-19T12:42:06.178Z,5.80
2023-04-19T12:43:06.096Z,6.70
2023-04-19T12:44:06.068Z,8.00
2023-04-19T12:45:06.049Z,6.00
2023-04-19T12:46:06.152Z,4.60
2023-04-19T12:47:06.040Z,8.70
2023-04-19T12:48:06.044Z,6.70
2023-04-19T12:49:06.005Z,7.70
2023-04-19T12:50:06.014Z,8.00
2023-04-19T12:51:06.009Z,6.20
2023-04-19T12:52:05.977Z,5.80
2023-04-19T12:53:05.920Z,7.60
2023-04-19T12:54:05.974Z,4.60
2023-04-19T12:55:05.938Z,6.00
2023-04-19T12:56:05.901Z,7.40
2023-04-19T12:57:05.909Z,9.80
2023-04-19T12:58:05.872Z,6.20
2023-04-19T12:59:05.901Z,7.70
2023-04-19T13:00:06.161Z,7.50
2023-04-19T13:01:05.883Z,5.80
2023-04-19T13:02:05.856Z,6.20
2023-04-19T13:03:05.875Z,7.20
2023-04-19T13:04:05.992Z,9.20
2023-04-19T13:05:05.778Z,7.10
2023-04-19T13:06:05.769Z,6.30
2023-04-19T13:07:05.774Z,5.30
2023-04-19T13:08:05.745Z,5.20
2023-04-19T13:09:14.213Z,5.60
2023-04-19T13:10:06.736Z,6.20
2023-04-19T13:11:05.717Z,6.50
2023-04-19T13:12:05.701Z,7.40
2023-04-19T13:13:05.679Z,7.30
2023-04-19T13:14:05.667Z,6.80